Time;durP1;ratioP1;P1;durP2;ratioP2;P2;SDS_P1;SDS_P2;PMS_P1;PMS_P2;Temp;Humidity;BMP_temperature;BMP_pressure;BME280_temperature;BME280_humidity;BME280_pressure;Samples;Min_cycle;Max_cycle;Signal;HPM_P1;HPM_P2
2023/07/19 00:00:40;;;;;;;;;;;;;;;14.50;100.00;101552.38;5036593;28;19952;-88
2023/07/19 00:03:06;;;;;;;;;;;;;;;14.49;100.00;101552.50;5037127;28;19913;-88
2023/07/19 00:05:31;;;;;;;;;;;;;;;14.49;100.00;101552.50;5019334;28;19962;-89
2023/07/19 00:07:57;;;;;;;;;;;;;;;14.50;100.00;101557.72;5036800;28;19952;-89
2023/07/19 00:10:22;;;;;;;;;;;;;;;14.54;100.00;101560.94;5036710;28;19959;-88
2023/07/19 00:12:47;;;;;;;;;;;;;;;14.58;100.00;101555.13;5018935;28;19921;-89
2023/07/19 00:15:14;;;;;;;;;;;;;;;14.64;100.00;101556.41;5019553;28;20363;-88
2023/07/19 00:17:41;;;;;;;;;;;;;;;14.67;100.00;101550.75;5018884;28;20003;-89
2023/07/19 00:20:07;;;;;;;;;;;;;;;14.72;100.00;101547.63;5036294;28;20003;-89
2023/07/19 00:22:32;;;;;;;;;;;;;;;14.76;100.00;101552.56;5035357;28;19967;-88
2023/07/19 00:25:03;;;;;;;;;;;;;;;14.79;100.00;101546.91;5036218;28;19913;-88
2023/07/19 00:27:30;;;;;;;;;;;;;;;14.85;100.00;101541.94;5035766;28;20369;-87
2023/07/19 00:29:55;;;;;;;;;;;;;;;14.89;100.00;101551.38;5003025;28;19921;-88
2023/07/19 00:32:21;;;;;;;;;;;;;;;14.92;100.00;101551.88;5036208;28;19913;-88
2023/07/19 00:34:47;;;;;;;;;;;;;;;14.96;100.00;101536.38;5036304;28;19971;-87
2023/07/19 00:37:13;;;;;;;;;;;;;;;14.96;100.00;101537.22;5036251;28;19913;-89
2023/07/19 00:39:40;;;;;;;;;;;;;;;14.99;100.00;101534.22;5002212;28;19921;-88
2023/07/19 00:42:06;;;;;;;;;;;;;;;15.02;100.00;101532.22;5036211;28;19913;-88
2023/07/19 00:44:31;;;;;;;;;;;;;;;15.03;100.00;101528.56;5018655;28;19924;-87
2023/07/19 00:47:01;;;;;;;;;;;;;;;15.06;100.00;101525.56;5018643;28;19960;-88
2023/07/19 00:49:26;;;;;;;;;;;;;;;15.09;100.00;101533.31;5035946;28;20017;-88
2023/07/19 00:51:53;;;;;;;;;;;;;;;15.11;100.00;101534.03;5017429;28;19920;-88
2023/07/19 00:54:19;;;;;;;;;;;;;;;15.12;100.00;101536.53;5018090;28;19963;-88
2023/07/19 00:56:45;;;;;;;;;;;;;;;15.13;100.00;101534.69;5018172;28;19913;-88
2023/07/19 00:59:12;;;;;;;;;;;;;;;15.10;100.00;101529.63;5035566;28;19959;-88
2023/07/19 01:01:37;;;;;;;;;;;;;;;15.05;100.00;101531.91;5035407;28;20007;-88
2023/07/19 01:04:03;;;;;;;;;;;;;;;14.99;100.00;101531.53;5035368;28;20004;-88
2023/07/19 01:06:28;;;;;;;;;;;;;;;14.95;100.00;101530.16;5035846;28;19921;-88
2023/07/19 01:08:55;;;;;;;;;;;;;;;14.92;100.00;101525.09;5016769;28;19913;-88
2023/07/19 01:11:21;;;;;;;;;;;;;;;14.90;100.00;101527.09;5035984;28;19940;-87
2023/07/19 01:13:50;;;;;;;;;;;;;;;14.87;100.00;101527.41;5017656;28;19921;-88
2023/07/19 01:16:16;;;;;;;;;;;;;;;14.86;100.00;101525.69;5036024;28;19955;-88
2023/07/19 01:18:41;;;;;;;;;;;;;;;14.84;100.00;101518.81;5017349;28;19956;-87
2023/07/19 01:21:06;;;;;;;;;;;;;;;14.82;100.00;101513.59;5001094;28;19917;-87
2023/07/19 01:23:32;;;;;;;;;;;;;;;14.83;100.00;101509.09;5017270;28;19952;-87
2023/07/19 01:25:57;;;;;;;;;;;;;;;14.83;100.00;101515.28;5017422;28;19917;-87
2023/07/19 01:28:24;;;;;;;;;;;;;;;14.85;100.00;101509.78;5017629;28;19917;-87
2023/07/19 01:30:49;;;;;;;;;;;;;;;14.87;100.00;101515.81;5017398;28;19967;-87
2023/07/19 01:33:15;;;;;;;;;;;;;;;14.87;100.00;101513.13;5017515;28;19913;-87
2023/07/19 01:35:42;;;;;;;;;;;;;;;14.88;100.00;101512.16;5035261;28;20011;-87
2023/07/19 01:38:07;;;;;;;;;;;;;;;14.88;100.00;101510.31;5016563;28;19959;-88
2023/07/19 01:40:33;;;;;;;;;;;;;;;14.87;100.00;101511.31;5017150;28;19913;-88
2023/07/19 01:42:58;;;;;;;;;;;;;;;14.88;100.00;101501.44;5016925;28;19917;-88
2023/07/19 01:45:23;;;;;;;;;;;;;;;14.88;100.00;101502.28;5017468;28;20347;-89
2023/07/19 01:47:48;;;;;;;;;;;;;;;14.88;100.00;101507.63;5017273;28;19921;-87
2023/07/19 01:50:15;;;;;;;;;;;;;;;14.92;100.00;101510.88;5017599;28;19920;-88
2023/07/19 01:52:40;;;;;;;;;;;;;;;14.91;100.00;101511.84;5017147;28;20361;-87
2023/07/19 01:55:06;;;;;;;;;;;;;;;14.90;100.00;101515.50;5000963;28;19963;-88
2023/07/19 01:57:32;;;;;;;;;;;;;;;14.89;100.00;101517.38;5017365;28;19967;-87
2023/07/19 01:59:57;;;;;;;;;;;;;;;14.91;100.00;101520.75;5000634;28;19995;-87
2023/07/19 02:02:23;;;;;;;;;;;;;;;14.92;100.00;101517.06;5017147;28;19917;-87
2023/07/19 02:04:48;;;;;;;;;;;;;;;14.95;100.00;101519.44;5034315;28;20393;-87
2023/07/19 02:07:13;;;;;;;;;;;;;;;14.98;100.00;101510.25;5034807;28;19924;-87
2023/07/19 02:09:39;;;;;;;;;;;;;;;15.02;100.00;101505.44;5034034;28;20288;-87
2023/07/19 02:12:05;;;;;;;;;;;;;;;15.04;100.00;101500.78;5034748;28;20372;-88
2023/07/19 02:14:30;;;;;;;;;;;;;;;15.04;100.00;101503.47;5034946;28;19913;-88
2023/07/19 02:16:56;;;;;;;;;;;;;;;15.04;100.00;101509.66;5016541;28;20013;-88
2023/07/19 02:19:21;;;;;;;;;;;;;;;15.05;100.00;101503.31;5034480;28;19917;-87
2023/07/19 02:21:47;;;;;;;;;;;;;;;15.04;100.00;101493.56;5017002;28;20278;-87
2023/07/19 02:24:12;;;;;;;;;;;;;;;15.03;100.00;101494.56;5017414;28;19917;-87
2023/07/19 02:26:37;;;;;;;;;;;;;;;15.02;100.00;101492.03;5036611;28;19917;-87
2023/07/19 02:29:03;;;;;;;;;;;;;;;14.99;100.00;101498.56;5018023;28;19921;-87
2023/07/19 02:31:28;;;;;;;;;;;;;;;14.95;100.00;101494.50;5003008;28;20281;-87
2023/07/19 02:33:53;;;;;;;;;;;;;;;14.89;100.00;101493.25;5002336;28;19917;-88
2023/07/19 02:36:19;;;;;;;;;;;;;;;14.87;100.00;101497.06;5018038;28;20392;-88
2023/07/19 02:38:45;;;;;;;;;;;;;;;14.83;100.00;101493.88;5016707;28;19920;-86
2023/07/19 02:41:11;;;;;;;;;;;;;;;14.83;100.00;101490.34;4999891;28;19921;-88
2023/07/19 02:43:37;;;;;;;;;;;;;;;14.81;100.00;101487.81;5015917;28;20028;-88
2023/07/19 02:46:02;;;;;;;;;;;;;;;14.79;100.00;101492.47;5016130;28;20070;-87
2023/07/19 02:48:28;;;;;;;;;;;;;;;14.77;100.00;101492.63;5000042;28;20365;-87
2023/07/19 02:50:53;;;;;;;;;;;;;;;14.76;100.00;101490.97;4999781;28;20349;-87
2023/07/19 02:53:28;;;;;;;;;;;;;;;14.77;100.00;101483.75;5000116;28;19921;-88
2023/07/19 02:55:53;;;;;;;;;;;;;;;14.79;100.00;101479.06;5034614;28;19913;-89
2023/07/19 02:58:19;;;;;;;;;;;;;;;14.82;100.00;101478.78;5017979;28;20024;-90
2023/07/19 03:00:44;;;;;;;;;;;;;;;14.84;100.00;101478.63;5016154;28;20285;-88
2023/07/19 03:03:18;;;;;;;;;;;;;;;14.80;100.00;101486.13;5033141;28;19913;-90
2023/07/19 03:05:44;;;;;;;;;;;;;;;14.73;100.00;101483.19;5016220;28;19972;-91
2023/07/19 03:08:11;;;;;;;;;;;;;;;14.69;100.00;101489.00;5033548;28;20353;-90
2023/07/19 03:10:37;;;;;;;;;;;;;;;14.60;100.00;101488.91;5034161;28;19920;-89
2023/07/19 03:13:03;;;;;;;;;;;;;;;14.54;100.00;101488.63;5033562;28;19967;-89
2023/07/19 03:15:32;;;;;;;;;;;;;;;14.49;100.00;101483.72;5034282;28;19912;-89
2023/07/19 03:18:02;;;;;;;;;;;;;;;14.47;100.00;101477.69;5016420;28;19975;-89
2023/07/19 03:20:29;;;;;;;;;;;;;;;14.46;100.00;101478.69;5033705;28;19917;-88
2023/07/19 03:22:54;;;;;;;;;;;;;;;14.46;100.00;101467.97;5015201;28;19913;-88
2023/07/19 03:25:20;;;;;;;;;;;;;;;14.49;100.00;101473.03;5033395;28;20418;-88
2023/07/19 03:27:59;;;;;;;;;;;;;;;;;;;;;
2023/07/19 03:30:48;;;;;;;;;;;;;;;14.51;100.00;101484.44;5017141;28;19921;-89
2023/07/19 03:33:13;;;;;;;;;;;;;;;14.52;100.00;101482.59;5006960;28;19921;-88
2023/07/19 03:35:43;;;;;;;;;;;;;;;14.54;100.00;101477.94;5033493;28;19963;-88
2023/07/19 03:38:09;;;;;;;;;;;;;;;14.55;100.00;101476.94;5015816;28;19924;-88
2023/07/19 03:40:46;;;;;;;;;;;;;;;14.57;100.00;101482.97;5033839;28;19913;-88
2023/07/19 03:49:08;;;;;;;;;;;;;;;14.58;100.00;101471.28;5012056;28;20281;-88
2023/07/19 03:54:39;;;;;;;;;;;;;;;14.63;100.00;101477.91;5011339;28;19964;-89
2023/07/19 03:57:04;;;;;;;;;;;;;;;14.65;100.00;101472.41;4994789;28;19968;-88
2023/07/19 03:59:35;;;;;;;;;;;;;;;14.68;100.00;101473.94;5011190;28;19961;-89
2023/07/19 04:02:01;;;;;;;;;;;;;;;14.69;100.00;101476.47;4996554;28;19976;-88
2023/07/19 04:04:32;;;;;;;;;;;;;;;14.70;100.00;101477.31;4998381;28;20350;-89
2023/07/19 04:06:57;;;;;;;;;;;;;;;14.70;100.00;101466.59;4998787;28;19967;-88
2023/07/19 04:09:25;;;;;;;;;;;;;;;14.72;100.00;101472.63;5018179;28;19964;-90
2023/07/19 04:11:51;;;;;;;;;;;;;;;14.74;100.00;101470.66;5019366;28;20365;-89
2023/07/19 04:14:16;;;;;;;;;;;;;;;14.77;100.00;101471.19;5018699;28;19928;-89
2023/07/19 04:16:42;;;;;;;;;;;;;;;14.80;100.00;101472.72;5018859;28;19913;-89
2023/07/19 04:19:07;;;;;;;;;;;;;;;14.83;100.00;101472.44;5019054;28;19917;-89
2023/07/19 04:21:33;;;;;;;;;;;;;;;14.88;100.00;101482.69;5019185;28;19912;-88
2023/07/19 04:23:58;;;;;;;;;;;;;;;14.89;100.00;101476.34;5019110;28;19921;-87
2023/07/19 04:26:24;;;;;;;;;;;;;;;14.91;100.00;101474.34;5018889;28;19921;-88
2023/07/19 04:28:50;;;;;;;;;;;;;;;14.92;100.00;101470.69;5017648;28;19932;-88
2023/07/19 04:31:15;;;;;;;;;;;;;;;14.93;100.00;101467.00;5018682;28;20288;-90
2023/07/19 04:33:41;;;;;;;;;;;;;;;14.95;100.00;101473.06;5018295;28;19921;-90
2023/07/19 04:36:15;;;;;;;;;;;;;;;14.98;100.00;101473.56;5036065;28;19920;-90
2023/07/19 04:38:41;;;;;;;;;;;;;;;15.02;100.00;101476.81;5018900;28;19917;-90
2023/07/19 04:41:07;;;;;;;;;;;;;;;15.07;100.00;101471.81;5002765;28;20008;-89
2023/07/19 04:43:32;;;;;;;;;;;;;;;15.14;100.00;101477.44;5035839;28;19940;-89
2023/07/19 04:45:57;;;;;;;;;;;;;;;15.21;100.00;101480.31;5035412;28;20350;-88
2023/07/19 04:48:23;;;;;;;;;;;;;;;15.25;100.00;101470.97;5001959;28;19923;-89
2023/07/19 04:50:53;;;;;;;;;;;;;;;15.27;100.00;101480.56;5018136;28;19967;-89
2023/07/19 04:53:19;;;;;;;;;;;;;;;15.30;100.00;101474.03;5002033;28;19917;-89
2023/07/19 04:55:44;;;;;;;;;;;;;;;15.33;100.00;101479.06;5036381;28;20334;-89
2023/07/19 04:58:09;;;;;;;;;;;;;;;15.35;100.00;101474.41;5035533;28;19913;-89
2023/07/19 05:00:35;;;;;;;;;;;;;;;15.38;100.00;101484.00;5018832;28;19913;-90
2023/07/19 05:03:00;;;;;;;;;;;;;;;15.41;100.00;101481.00;5002220;28;20004;-90
2023/07/19 05:05:26;;;;;;;;;;;;;;;15.46;100.00;101484.88;5018053;28;19960;-88
2023/07/19 05:07:51;;;;;;;;;;;;;;;15.54;100.00;101492.19;5035402;28;20285;-88
2023/07/19 05:10:16;;;;;;;;;;;;;;;15.62;100.00;101492.22;5017951;28;19928;-88
2023/07/19 05:12:42;;;;;;;;;;;;;;;15.67;100.00;101497.97;5017761;28;20003;-88
2023/07/19 05:15:10;;;;;;;;;;;;;;;15.74;100.00;101491.97;5017970;28;20254;-88
2023/07/19 05:17:36;;;;;;;;;;;;;;;15.80;100.00;101494.91;5017964;28;19935;-89
2023/07/19 05:20:01;;;;;;;;;;;;;;;15.89;100.00;101484.22;5035765;28;20306;-90
2023/07/19 05:22:28;;;;;;;;;;;;;;;15.94;100.00;101490.78;5017154;28;20385;-91
2023/07/19 05:24:54;;;;;;;;;;;;;;;16.02;100.00;101490.84;5018048;28;20288;-90
2023/07/19 05:27:20;;;;;;;;;;;;;;;16.10;100.00;101486.53;5017817;28;19921;-89
2023/07/19 05:29:45;;;;;;;;;;;;;;;16.16;100.00;101477.81;5016950;28;19924;-89
2023/07/19 05:32:11;;;;;;;;;;;;;;;16.22;100.00;101472.66;5017278;28;19917;-88
2023/07/19 05:34:36;;;;;;;;;;;;;;;16.31;100.00;101480.75;5017479;28;19917;-89
2023/07/19 05:37:06;;;;;;;;;;;;;;;16.38;100.00;101476.41;5018186;28;19982;-90
2023/07/19 05:39:31;;;;;;;;;;;;;;;16.47;100.00;101472.75;5018107;28;20253;-90
2023/07/19 05:41:57;;;;;;;;;;;;;;;16.57;100.00;101473.47;5017775;28;19917;-89
2023/07/19 05:44:22;;;;;;;;;;;;;;;16.65;100.00;101466.44;5016986;28;20381;-90
2023/07/19 05:46:48;;;;;;;;;;;;;;;16.74;100.00;101482.41;5017648;28;20317;-89
2023/07/19 05:49:13;;;;;;;;;;;;;;;16.81;100.00;101474.53;5016914;28;20388;-91
2023/07/19 05:51:39;;;;;;;;;;;;;;;16.87;100.00;101470.38;5017148;28;19921;-91
2023/07/19 05:54:12;;;;;;;;;;;;;;;16.89;100.00;101479.94;5034881;28;20020;-89
2023/07/19 05:56:38;;;;;;;;;;;;;;;16.94;100.00;101473.25;5017018;28;20008;-88
2023/07/19 05:59:17;;;;;;;;;;;;;;;16.96;100.00;101473.91;5016879;28;19979;-88
2023/07/19 06:01:43;;;;;;;;;;;;;;;17.00;100.00;101470.72;5017152;28;20004;-89
2023/07/19 06:04:09;;;;;;;;;;;;;;;17.13;100.00;101478.31;5016898;28;20071;-90
2023/07/19 06:06:34;;;;;;;;;;;;;;;17.24;100.00;101475.31;5035114;28;20000;-90
2023/07/19 06:09:08;;;;;;;;;;;;;;;17.41;100.00;101480.69;5016537;28;20020;-87
2023/07/19 06:11:37;;;;;;;;;;;;;;;17.57;100.00;101480.66;5016192;28;19990;-88
2023/07/19 06:14:19;;;;;;;;;;;;;;;17.75;100.00;101474.22;5012969;28;19913;-86
2023/07/19 06:16:54;;;;;;;;;;;;;;;17.89;100.00;101475.41;5017112;28;19921;-87
2023/07/19 06:19:29;;;;;;;;;;;;;;;17.94;100.00;101468.53;5016513;28;20012;-85
2023/07/19 06:22:05;;;;;;;;;;;;;;;17.99;100.00;101473.38;5034249;28;19919;-85
2023/07/19 06:24:43;;;;;;;;;;;;;;;17.92;100.00;101469.69;5015261;28;19916;-85
2023/07/19 06:27:12;;;;;;;;;;;;;;;17.93;100.00;101468.69;5016079;28;19917;-84
2023/07/19 06:29:38;;;;;;;;;;;;;;;18.07;100.00;101473.34;5033941;28;19917;-84
2023/07/19 06:32:06;;;;;;;;;;;;;;;18.22;100.00;101464.56;5033661;28;19913;-84
2023/07/19 06:34:41;;;;;;;;;;;;;;;18.39;100.00;101473.41;5016168;28;19921;-86
2023/07/19 06:37:06;;;;;;;;;;;;;;;18.54;100.00;101477.06;5016477;28;20257;-85
2023/07/19 06:39:34;;;;;;;;;;;;;;;18.67;100.00;101477.31;5016029;28;19920;-83
2023/07/19 06:42:10;;;;;;;;;;;;;;;18.77;100.00;101485.16;5016135;28;19917;-89
2023/07/19 06:44:38;;;;;;;;;;;;;;;18.77;100.00;101485.16;5034273;28;19920;-87
2023/07/19 06:47:07;;;;;;;;;;;;;;;18.73;100.00;101478.44;5033287;28;19913;-84
2023/07/19 06:49:35;;;;;;;;;;;;;;;18.74;100.00;101480.13;5015654;28;19913;-85
2023/07/19 06:52:12;;;;;;;;;;;;;;;18.69;100.00;101479.84;4999386;28;19924;-86
2023/07/19 06:54:40;;;;;;;;;;;;;;;18.63;100.00;101485.91;5034156;28;19913;-85
2023/07/19 06:57:24;;;;;;;;;;;;;;;18.65;100.00;101492.81;4994298;28;20460;-88
2023/07/19 07:00:30;;;;;;;;;;;;;;;;;;;;;
2023/07/19 07:06:42;;;;;;;;;;;;;;;;;;;;;
2023/07/19 07:09:19;;;;;;;;;;;;;;;19.13;100.00;101492.72;4999894;28;19928;-84
2023/07/19 07:11:44;;;;;;;;;;;;;;;19.40;100.00;101490.47;4995199;28;19913;-83
2023/07/19 07:14:29;;;;;;;;;;;;;;;19.56;100.00;101494.91;5010893;28;19921;-84
2023/07/19 07:16:55;;;;;;;;;;;;;;;19.62;100.00;101498.75;5012034;28;19918;-87
2023/07/19 07:19:28;;;;;;;;;;;;;;;19.74;100.00;101492.69;5011290;28;19945;-85
2023/07/19 07:22:05;;;;;;;;;;;;;;;19.83;100.00;101485.38;4995192;28;19918;-86
2023/07/19 07:24:32;;;;;;;;;;;;;;;19.73;100.00;101493.72;5011618;28;20009;-82
2023/07/19 07:27:31;;;;;;;;;;;;;;;19.67;100.00;101488.22;5011502;28;19962;-90
2023/07/19 07:29:58;;;;;;;;;;;;;;;19.75;100.00;101498.94;5011448;28;20005;-84
2023/07/19 07:32:24;;;;;;;;;;;;;;;20.05;100.00;101496.31;5010868;28;20016;-83
2023/07/19 07:34:49;;;;;;;;;;;;;;;20.36;100.00;101496.13;5025178;28;20026;-84
2023/07/19 07:37:14;;;;;;;;;;;;;;;20.53;100.00;101487.78;5018624;28;19924;-84
2023/07/19 07:39:39;;;;;;;;;;;;;;;20.51;100.00;101487.13;5037691;28;19913;-86
2023/07/19 07:42:05;;;;;;;;;;;;;;;20.39;100.00;101490.31;5019621;28;19970;-86
2023/07/19 07:44:31;;;;;;;;;;;;;;;20.34;100.00;101494.63;5038194;28;19917;-85
2023/07/19 07:46:56;;;;;;;;;;;;;;;20.39;100.00;101493.03;5037918;28;20349;-91
2023/07/19 07:49:24;;;;;;;;;;;;;;;20.21;100.00;101495.25;5020370;28;20281;-91
2023/07/19 07:51:49;;;;;;;;;;;;;;;20.20;100.00;101490.91;5019602;28;20439;-88
2023/07/19 07:54:15;;;;;;;;;;;;;;;20.26;100.00;101496.38;5037393;28;19917;-87
2023/07/19 07:56:41;;;;;;;;;;;;;;;20.30;100.00;101490.59;5037129;28;19913;-86
2023/07/19 07:59:06;;;;;;;;;;;;;;;20.46;100.00;101486.88;5037178;28;19959;-89
2023/07/19 08:01:33;;;;;;;;;;;;;;;20.69;100.00;101484.03;5023901;28;19920;-84
2023/07/19 08:03:59;;;;;;;;;;;;;;;20.66;100.00;101481.72;5021589;28;19936;-84
2023/07/19 08:06:28;;;;;;;;;;;;;;;20.47;100.00;101485.81;5040100;28;19944;-86
2023/07/19 08:08:58;;;;;;;;;;;;;;;20.16;100.00;101486.91;5020592;28;19999;-87
2023/07/19 08:11:25;;;;;;;;;;;;;;;19.91;100.00;101481.75;5037672;28;19913;-86
2023/07/19 08:13:50;;;;;;;;;;;;;;;19.77;100.00;101486.09;5021319;28;19944;-85
2023/07/19 08:16:16;;;;;;;;;;;;;;;19.64;100.00;101485.88;5005907;28;20285;-86
2023/07/19 08:18:41;;;;;;;;;;;;;;;19.64;100.00;101475.09;5004704;28;19979;-87
2023/07/19 08:21:06;;;;;;;;;;;;;;;19.76;100.00;101473.59;5037111;28;19917;-88
2023/07/19 08:23:32;;;;;;;;;;;;;;;19.93;100.00;101479.72;5018287;28;19956;-85
2023/07/19 08:25:58;;;;;;;;;;;;;;;20.29;100.00;101470.88;5036425;28;19952;-87
2023/07/19 08:28:26;;;;;;;;;;;;;;;20.48;100.00;101474.00;5036698;28;19999;-86
2023/07/19 08:30:52;;;;;;;;;;;;;;;20.64;100.00;101475.66;5018831;28;19917;-89
2023/07/19 08:33:18;;;;;;;;;;;;;;;20.81;100.00;101479.81;5019142;28;20007;-89
2023/07/19 08:35:43;;;;;;;;;;;;;;;21.03;100.00;101472.53;5036672;28;19924;-88
2023/07/19 08:38:09;;;;;;;;;;;;;;;21.18;100.00;101479.75;5018841;28;20472;-87
2023/07/19 08:40:37;;;;;;;;;;;;;;;21.06;100.00;101474.84;5019184;28;20356;-87
2023/07/19 08:43:04;;;;;;;;;;;;;;;21.02;100.00;101475.44;5036381;28;19913;-88
2023/07/19 08:45:33;;;;;;;;;;;;;;;20.83;100.00;101479.63;5018678;28;20403;-86
2023/07/19 08:47:58;;;;;;;;;;;;;;;20.60;100.00;101480.56;5018181;28;20238;-87
2023/07/19 08:50:24;;;;;;;;;;;;;;;20.36;100.00;101490.72;5018473;28;19917;-86
2023/07/19 08:52:49;;;;;;;;;;;;;;;20.30;100.00;101487.91;5036379;28;19929;-88
2023/07/19 08:55:15;;;;;;;;;;;;;;;20.40;100.00;101477.66;5002078;28;19917;-85
2023/07/19 08:57:42;;;;;;;;;;;;;;;20.50;100.00;101489.00;5036548;28;19999;-86
2023/07/19 09:00:08;;;;;;;;;;;;;;;20.62;100.00;101481.25;5036467;28;19913;-86
2023/07/19 09:02:34;;;;;;;;;;;;;;;20.81;100.00;101490.66;5018196;28;19920;-86
2023/07/19 09:05:18;;;;;;;;;;;;;;;20.94;100.00;101487.22;5035494;28;20020;-84
2023/07/19 09:07:45;;;;;;;;;;;;;;;20.93;100.00;101488.28;5018116;28;20380;-86
2023/07/19 09:10:11;;;;;;;;;;;;;;;20.90;100.00;101492.19;5035948;28;20015;-85
2023/07/19 09:12:40;;;;;;;;;;;;;;;20.68;100.00;101488.63;5017440;28;19944;-86
2023/07/19 09:15:07;;;;;;;;;;;;;;;20.43;100.00;101493.47;5017698;28;19932;-86
2023/07/19 09:17:39;;;;;;;;;;;;;;;20.34;100.00;101495.44;5017076;28;20388;-86
2023/07/19 09:20:06;;;;;;;;;;;;;;;20.46;100.00;101497.69;5035444;28;19952;-87
2023/07/19 09:22:31;;;;;;;;;;;;;;;20.81;100.00;101495.19;5035182;28;19919;-85
2023/07/19 09:25:01;;;;;;;;;;;;;;;21.14;100.00;101504.50;5017503;28;19999;-83
2023/07/19 09:27:26;;;;;;;;;;;;;;;21.39;100.00;101500.56;5035574;28;19921;-85
2023/07/19 09:29:52;;;;;;;;;;;;;;;21.51;100.00;101496.31;5017450;28;19920;-84
2023/07/19 09:32:17;;;;;;;;;;;;;;;21.63;100.00;101497.47;5017056;28;19917;-85
2023/07/19 09:34:44;;;;;;;;;;;;;;;21.53;100.00;101507.81;5017869;28;19975;-84
2023/07/19 09:37:10;;;;;;;;;;;;;;;21.55;100.00;101505.72;5035723;28;20043;-86
2023/07/19 09:39:38;;;;;;;;;;;;;;;21.58;100.00;101504.50;5017264;28;19967;-86
2023/07/19 09:42:08;;;;;;;;;;;;;;;21.72;100.00;101505.44;5001971;28;19921;-86
2023/07/19 09:44:34;;;;;;;;;;;;;;;21.79;100.00;101503.63;5035560;28;19913;-86
2023/07/19 09:47:01;;;;;;;;;;;;;;;21.86;100.00;101509.09;5018244;28;20283;-84
2023/07/19 09:49:29;;;;;;;;;;;;;;;21.96;100.00;101498.72;5017049;28;19919;-86
2023/07/19 09:51:55;;;;;;;;;;;;;;;21.81;100.00;101502.41;5035016;28;19923;-87
2023/07/19 09:54:27;;;;;;;;;;;;;;;21.82;100.00;101500.50;5017597;28;19913;-86
2023/07/19 09:56:55;;;;;;;;;;;;;;;21.82;100.00;101501.34;5035342;28;19912;-84
2023/07/19 10:02:23;;;;;;;;;;;;;;;21.96;100.00;101499.56;5013156;28;20004;-85
2023/07/19 10:04:50;;;;;;;;;;;;;;;22.09;100.00;101504.22;4996201;28;19956;-84
2023/07/19 10:07:25;;;;;;;;;;;;;;;22.38;100.00;101509.63;5013046;28;19956;-86
2023/07/19 10:10:00;;;;;;;;;;;;;;;22.64;100.00;101506.19;5013104;28;20012;-87
2023/07/19 10:12:28;;;;;;;;;;;;;;;22.76;100.00;101503.72;5013261;28;19921;-83
2023/07/19 10:14:54;;;;;;;;;;;;;;;22.83;100.00;101510.00;5012371;28;19913;-85
2023/07/19 10:17:30;;;;;;;;;;;;;;;22.70;100.00;101503.50;4996129;28;19939;-87
2023/07/19 10:20:21;;;;;;;;;;;;;;;22.56;100.00;101495.50;4996420;28;19914;-85
2023/07/19 10:22:55;;;;;;;;;;;;;;;22.39;100.00;101511.28;4996946;28;20346;-86
2023/07/19 10:25:27;;;;;;;;;;;;;;;22.48;100.00;101507.38;5012499;28;19913;-87
2023/07/19 10:27:56;;;;;;;;;;;;;;;22.68;100.00;101502.88;4997041;28;19913;-85
2023/07/19 10:30:22;;;;;;;;;;;;;;;22.80;100.00;101505.81;5023788;28;20011;-86
2023/07/19 10:32:50;;;;;;;;;;;;;;;22.56;100.00;101509.94;5034451;28;20388;-87
2023/07/19 10:35:51;;;;;;;;;;;;;;;22.52;100.00;101506.75;5017629;28;19940;-85
2023/07/19 10:38:36;;;;;;;;;;;;;;;22.46;100.00;101515.72;4935293;29;19922;-84
2023/07/19 10:41:05;;;;;;;;;;;;;;;22.42;100.00;101508.19;5026633;28;19913;-87
2023/07/19 10:43:32;;;;;;;;;;;;;;;22.53;100.00;101513.88;5016840;28;19913;-87
2023/07/19 10:46:03;;;;;;;;;;;;;;;22.58;100.00;101518.69;5034467;28;19913;-87
2023/07/19 10:48:29;;;;;;;;;;;;;;;22.56;100.00;101504.50;5034625;28;19916;-87
2023/07/19 10:50:55;;;;;;;;;;;;;;;22.38;100.00;101507.75;5033904;28;20099;-88
2023/07/19 10:53:21;;;;;;;;;;;;;;;22.60;100.00;101510.34;5034338;28;20429;-87
2023/07/19 10:55:46;;;;;;;;;;;;;;;22.77;100.00;101508.13;5034861;28;20349;-85
2023/07/19 10:58:12;;;;;;;;;;;;;;;23.04;100.00;101509.84;5016952;28;20349;-86
2023/07/19 11:00:43;;;;;;;;;;;;;;;23.21;100.00;101518.47;5016811;28;19948;-87
2023/07/19 11:03:12;;;;;;;;;;;;;;;23.13;100.00;101521.38;5017175;28;20265;-85
2023/07/19 11:05:43;;;;;;;;;;;;;;;23.11;100.00;101514.47;5016306;28;19913;-86
2023/07/19 11:08:19;;;;;;;;;;;;;;;23.13;100.00;101515.13;5016493;28;19970;-84
2023/07/19 11:10:54;;;;;;;;;;;;;;;22.92;100.00;101516.09;5030289;28;19913;-85
2023/07/19 11:13:24;;;;;;;;;;;;;;;22.48;100.00;101518.22;5037761;28;19996;-85
2023/07/19 11:15:54;;;;;;;;;;;;;;;22.19;100.00;101520.97;5037771;28;20285;-86
2023/07/19 11:18:29;;;;;;;;;;;;;;;21.94;100.00;101517.06;5020492;28;19925;-86
2023/07/19 11:20:58;;;;;;;;;;;;;;;21.62;100.00;101524.75;5037808;28;20365;-87
2023/07/19 11:23:27;;;;;;;;;;;;;;;21.53;100.00;101529.47;5037618;28;19917;-86
2023/07/19 11:26:06;;;;;;;;;;;;;;;21.40;100.00;101526.59;5020267;28;19913;-87
2023/07/19 11:28:46;;;;;;;;;;;;;;;21.47;100.00;101531.03;5037990;28;19913;-86
2023/07/19 11:31:32;;;;;;;;;;;;;;;21.40;100.00;101532.00;5037503;28;19916;-85
2023/07/19 11:34:16;;;;;;;;;;;;;;;21.56;100.00;101526.34;5037236;28;19917;-86
2023/07/19 11:36:52;;;;;;;;;;;;;;;21.63;100.00;101529.09;5019504;28;19960;-85
2023/07/19 11:39:18;;;;;;;;;;;;;;;21.73;100.00;101523.38;5004895;28;20238;-87
2023/07/19 11:41:50;;;;;;;;;;;;;;;21.66;100.00;101518.75;5020009;28;20318;-86
2023/07/19 11:44:16;;;;;;;;;;;;;;;21.58;100.00;101520.75;5020545;28;19921;-86
2023/07/19 11:46:42;;;;;;;;;;;;;;;21.41;100.00;101526.41;5037845;28;19920;-85
2023/07/19 11:49:16;;;;;;;;;;;;;;;21.39;100.00;101525.78;5019022;28;19917;-85
2023/07/19 11:51:42;;;;;;;;;;;;;;;21.16;100.00;101527.84;5020226;28;19917;-87
2023/07/19 11:54:10;;;;;;;;;;;;;;;21.02;100.00;101530.41;5037836;28;20024;-85
2023/07/19 11:56:37;;;;;;;;;;;;;;;20.90;100.00;101526.50;5020329;28;19913;-86
2023/07/19 11:59:03;;;;;;;;;;;;;;;20.76;100.00;101523.63;5019175;28;19913;-87
2023/07/19 12:01:28;;;;;;;;;;;;;;;20.67;100.00;101537.47;5019421;28;19924;-87
2023/07/19 12:03:54;;;;;;;;;;;;;;;20.57;100.00;101535.03;5019560;28;19913;-87
2023/07/19 12:06:25;;;;;;;;;;;;;;;20.46;100.00;101532.81;5019141;28;19916;-84
2023/07/19 12:08:50;;;;;;;;;;;;;;;20.47;100.00;101539.88;5036835;28;19921;-87
2023/07/19 12:11:21;;;;;;;;;;;;;;;20.43;100.00;101537.53;5018910;28;19917;-85
2023/07/19 12:13:52;;;;;;;;;;;;;;;20.30;100.00;101531.13;5020357;28;20338;-85
2023/07/19 12:16:23;;;;;;;;;;;;;;;20.27;100.00;101535.03;5036812;28;19968;-85
2023/07/19 12:30:54;;;;;;;;;;;;;;;20.52;100.00;101545.56;5014336;28;20312;-84
2023/07/19 12:33:20;;;;;;;;;;;;;;;20.63;100.00;101547.81;4998158;28;20010;-86
2023/07/19 12:35:46;;;;;;;;;;;;;;;20.85;100.00;101547.88;5014648;28;20418;-86
2023/07/19 12:38:11;;;;;;;;;;;;;;;20.98;100.00;101541.78;4998830;28;20008;-84
2023/07/19 12:40:43;;;;;;;;;;;;;;;21.12;100.00;101538.19;5014713;28;19917;-86
2023/07/19 12:43:09;;;;;;;;;;;;;;;21.17;100.00;101541.16;4997992;28;19913;-85
2023/07/19 12:45:34;;;;;;;;;;;;;;;21.23;100.00;101534.13;5022652;28;19919;-85
2023/07/19 12:48:00;;;;;;;;;;;;;;;21.21;100.00;101539.72;5018351;28;20010;-86
2023/07/19 12:50:29;;;;;;;;;;;;;;;21.30;100.00;101535.03;5035820;28;19956;-85
2023/07/19 12:52:54;;;;;;;;;;;;;;;21.40;100.00;101546.38;5018478;28;19921;-85
2023/07/19 12:55:23;;;;;;;;;;;;;;;21.64;100.00;101541.63;5002417;28;20023;-85
2023/07/19 12:58:00;;;;;;;;;;;;;;;22.17;100.00;101535.78;5018590;28;19913;-84
2023/07/19 13:06:43;;;;;;;;;;;;;;;22.54;100.00;101537.25;4940815;29;19918;-85
2023/07/19 13:12:20;;;;;;;;;;;;;;;22.73;100.00;101533.97;5035681;28;19931;-87